createdAt,value
2023-03-06T00:01:01.847Z,8.70
2023-03-06T00:03:34.741Z,7.90
2023-03-06T00:06:06.554Z,9.00
2023-03-06T00:08:40.290Z,8.38
2023-03-06T00:11:15.875Z,8.68
2023-03-06T00:13:48.968Z,8.23
2023-03-06T00:16:20.311Z,9.45
2023-03-06T00:18:51.678Z,8.43
2023-03-06T00:21:23.113Z,9.23
2023-03-06T00:23:54.507Z,8.32
2023-03-06T00:26:25.759Z,8.60
2023-03-06T00:28:58.636Z,8.73
2023-03-06T00:31:29.701Z,8.75
2023-03-06T00:34:01.126Z,7.65
2023-03-06T00:36:32.318Z,8.52
2023-03-06T00:39:03.422Z,8.25
2023-03-06T00:41:34.469Z,8.63
2023-03-06T00:44:07.456Z,8.45
2023-03-06T00:46:38.914Z,7.75
2023-03-06T00:49:10.146Z,9.43
2023-03-06T00:51:42.235Z,8.50
2023-03-06T00:54:13.812Z,8.30
2023-03-06T00:56:45.144Z,8.80
2023-03-06T00:59:17.926Z,8.73
2023-03-06T01:01:48.994Z,8.13
2023-03-06T01:04:20.292Z,8.60
2023-03-06T01:06:51.917Z,8.10
2023-03-06T01:09:23.149Z,8.27
2023-03-06T01:11:54.476Z,7.95
2023-03-06T01:14:27.503Z,8.70
2023-03-06T01:16:58.767Z,8.02
2023-03-06T01:19:30.086Z,8.40
2023-03-06T01:22:04.721Z,8.57
2023-03-06T01:24:36.298Z,8.77
2023-03-06T01:27:07.713Z,7.78
2023-03-06T01:29:40.589Z,8.20
2023-03-06T01:32:12.003Z,8.45
2023-03-06T01:34:43.180Z,8.48
2023-03-06T01:37:14.351Z,8.35
2023-03-06T01:39:45.298Z,8.20
2023-03-06T01:42:16.980Z,8.38
2023-03-06T01:45:09.030Z,7.70
2023-03-06T01:47:40.413Z,9.27
2023-03-06T01:50:13.955Z,9.23
2023-03-06T01:52:50.260Z,7.30
2023-03-06T01:55:23.829Z,8.60
2023-03-06T01:57:58.768Z,9.32
2023-03-06T02:00:33.247Z,9.77
2023-03-06T02:03:09.735Z,8.70
2023-03-06T02:05:42.781Z,8.85
2023-03-06T02:08:17.065Z,9.48
2023-03-06T02:11:00.282Z,9.30
2023-03-06T02:13:32.375Z,8.63
2023-03-06T02:16:05.909Z,10.00
2023-03-06T02:18:37.804Z,8.45
2023-03-06T02:21:12.294Z,9.43
2023-03-06T02:23:52.203Z,8.50
2023-03-06T02:26:25.602Z,9.20
2023-03-06T02:28:58.468Z,8.48
2023-03-06T02:31:31.374Z,9.20
2023-03-06T02:34:11.004Z,9.50
2023-03-06T02:36:47.446Z,10.95
2023-03-06T02:39:21.877Z,9.35
2023-03-06T02:41:55.008Z,11.05
2023-03-06T02:44:27.731Z,9.98
2023-03-06T02:46:58.799Z,10.68
2023-03-06T02:49:29.991Z,9.70
2023-03-06T02:52:01.503Z,10.57
2023-03-06T02:54:32.859Z,10.18
2023-03-06T02:57:05.819Z,11.13
2023-03-06T02:59:37.077Z,10.07
2023-03-06T03:02:08.332Z,10.90
2023-03-06T03:04:39.954Z,10.75
2023-03-06T03:07:11.325Z,12.07
2023-03-06T03:09:42.518Z,11.15
2023-03-06T03:12:15.843Z,11.07
2023-03-06T03:14:47.580Z,11.43
2023-03-06T03:17:18.808Z,11.20
2023-03-06T03:19:50.084Z,11.25
2023-03-06T03:22:21.596Z,12.20
2023-03-06T03:24:52.909Z,12.68
2023-03-06T03:27:26.121Z,12.07
2023-03-06T03:29:59.684Z,11.93
2023-03-06T03:32:31.083Z,12.60
2023-03-06T03:35:03.459Z,12.25
2023-03-06T03:37:35.849Z,12.60
2023-03-06T03:40:07.776Z,13.50
2023-03-06T03:42:41.223Z,13.77
2023-03-06T03:45:13.316Z,13.18
2023-03-06T03:47:44.676Z,13.52
2023-03-06T03:50:15.990Z,13.52
2023-03-06T03:52:47.295Z,14.27
2023-03-06T03:55:18.642Z,13.50
2023-03-06T03:57:51.581Z,14.05
2023-03-06T04:00:23.725Z,12.73
2023-03-06T04:02:54.961Z,14.07
2023-03-06T04:05:26.446Z,13.63
2023-03-06T04:07:57.527Z,14.73
2023-03-06T04:10:29.007Z,14.18
2023-03-06T04:13:02.108Z,14.32
2023-03-06T04:15:33.517Z,13.43
2023-03-06T04:18:04.802Z,14.23
2023-03-06T04:20:36.236Z,14.38
2023-03-06T04:23:07.464Z,13.55
2023-03-06T04:25:38.615Z,14.57
2023-03-06T04:28:12.009Z,13.85
2023-03-06T04:30:43.317Z,14.23
2023-03-06T04:33:14.533Z,14.90
2023-03-06T04:35:45.823Z,13.98
2023-03-06T04:38:17.132Z,14.45
2023-03-06T04:40:48.303Z,14.23
2023-03-06T04:43:21.561Z,14.70
2023-03-06T04:45:53.008Z,14.20
2023-03-06T04:48:26.108Z,14.20
2023-03-06T04:50:57.359Z,14.00
2023-03-06T04:53:28.267Z,13.95
2023-03-06T04:55:59.610Z,14.18
2023-03-06T04:58:32.356Z,13.43
2023-03-06T05:01:03.832Z,15.07
2023-03-06T05:03:35.445Z,15.25
2023-03-06T05:06:06.831Z,15.23
2023-03-06T05:08:38.659Z,15.30
2023-03-06T05:11:10.101Z,15.07
2023-03-06T05:13:43.932Z,16.15
2023-03-06T05:16:15.291Z,14.90
2023-03-06T05:18:48.363Z,16.25
2023-03-06T05:21:20.561Z,15.10
2023-03-06T05:23:52.058Z,15.30
2023-03-06T05:26:24.330Z,14.80
2023-03-06T05:28:57.237Z,15.82
2023-03-06T05:31:28.705Z,15.20
2023-03-06T05:34:01.792Z,16.33
2023-03-06T05:36:33.815Z,14.60
2023-03-06T05:39:05.265Z,15.90
2023-03-06T05:41:39.483Z,15.82
2023-03-06T05:44:12.410Z,16.27
2023-03-06T05:46:43.532Z,16.38
2023-03-06T05:49:14.884Z,16.23
2023-03-06T05:51:46.067Z,16.38
2023-03-06T05:54:17.405Z,16.73
2023-03-06T05:56:48.598Z,17.02
2023-03-06T05:59:21.485Z,16.23
2023-03-06T06:01:52.619Z,15.75
2023-03-06T06:04:24.029Z,17.33
2023-03-06T06:06:56.912Z,17.42
2023-03-06T06:09:28.816Z,17.45
2023-03-06T06:12:02.128Z,16.58
2023-03-06T06:14:37.353Z,16.58
2023-03-06T06:17:08.516Z,18.35
2023-03-06T06:19:39.846Z,16.77
2023-03-06T06:22:10.559Z,16.63
2023-03-06T06:24:41.247Z,17.70
2023-03-06T06:27:12.439Z,17.80
2023-03-06T06:29:44.618Z,17.42
2023-03-06T06:32:22.649Z,18.25
2023-03-06T06:34:54.012Z,18.25
2023-03-06T06:37:26.183Z,16.38
2023-03-06T06:39:57.566Z,16.75
2023-03-06T06:42:36.979Z,16.60
2023-03-06T06:45:14.133Z,19.38
2023-03-06T06:47:45.603Z,16.73
2023-03-06T06:50:17.493Z,17.55
2023-03-06T06:52:51.775Z,17.63
2023-03-06T06:55:23.165Z,16.83
2023-03-06T06:57:54.095Z,16.30
2023-03-06T07:00:39.216Z,18.25
2023-03-06T07:03:10.483Z,17.08
2023-03-06T07:05:41.032Z,17.15
2023-03-06T07:08:11.972Z,17.08
2023-03-06T07:10:42.593Z,16.30
2023-03-06T07:13:13.574Z,17.77
2023-03-06T07:15:46.083Z,16.80
2023-03-06T07:18:16.606Z,15.85
2023-03-06T07:20:47.057Z,16.83
2023-03-06T07:23:18.049Z,16.05
2023-03-06T07:25:48.867Z,15.70
2023-03-06T07:28:19.725Z,16.27
2023-03-06T07:30:52.060Z,15.63
2023-03-06T07:33:22.474Z,15.68
2023-03-06T07:35:52.905Z,15.63
2023-03-06T07:38:23.432Z,16.05
2023-03-06T07:40:54.868Z,16.77
2023-03-06T07:43:25.417Z,20.13
2023-03-06T07:46:03.619Z,16.50
2023-03-06T07:48:34.036Z,15.52
2023-03-06T07:51:06.211Z,15.63
2023-03-06T07:53:36.836Z,14.95
2023-03-06T07:56:09.852Z,15.52
2023-03-06T07:58:40.785Z,16.65
2023-03-06T08:01:14.797Z,16.17
2023-03-06T08:03:52.442Z,16.40
2023-03-06T08:06:25.593Z,16.35
2023-03-06T08:09:06.451Z,15.23
2023-03-06T08:11:36.998Z,16.13
2023-03-06T08:14:09.657Z,16.10
2023-03-06T08:16:52.764Z,15.68
2023-03-06T08:19:23.382Z,14.82
2023-03-06T08:22:03.067Z,14.38
2023-03-06T08:24:33.640Z,15.25
2023-03-06T08:27:47.672Z,15.30
2023-03-06T08:30:18.684Z,15.63
2023-03-06T08:32:50.800Z,16.10
2023-03-06T08:35:29.751Z,15.90
2023-03-06T08:38:00.384Z,15.68
2023-03-06T08:40:37.541Z,14.98
2023-03-06T08:43:28.711Z,14.25
2023-03-06T08:46:02.981Z,15.23
2023-03-06T08:48:35.250Z,15.27
2023-03-06T08:51:06.005Z,15.18
2023-03-06T08:53:43.129Z,15.18
2023-03-06T08:56:23.557Z,15.45
2023-03-06T08:58:55.527Z,15.68
2023-03-06T09:01:30.053Z,15.48
2023-03-06T09:04:03.841Z,15.68
2023-03-06T09:06:36.316Z,15.13
2023-03-06T09:09:13.772Z,14.82
2023-03-06T09:11:47.215Z,14.77
2023-03-06T09:14:18.724Z,14.95
2023-03-06T09:16:49.297Z,14.43
2023-03-06T09:19:21.546Z,15.02
2023-03-06T09:21:52.651Z,14.73
2023-03-06T09:24:23.291Z,15.45
2023-03-06T09:26:53.905Z,16.65
2023-03-06T09:29:24.508Z,16.13
2023-03-06T09:31:55.082Z,14.18
2023-03-06T09:34:28.508Z,14.93
2023-03-06T09:36:58.950Z,15.52
2023-03-06T09:39:29.858Z,16.00
2023-03-06T09:42:00.858Z,16.08
2023-03-06T09:44:33.782Z,16.63
2023-03-06T09:47:29.500Z,16.15
2023-03-06T09:50:17.658Z,17.45
2023-03-06T09:53:00.648Z,15.80
2023-03-06T09:55:36.894Z,15.43
2023-03-06T09:58:14.228Z,17.85
2023-03-06T10:00:54.523Z,17.20
2023-03-06T10:03:30.290Z,17.85
2023-03-06T10:06:07.851Z,17.67
2023-03-06T10:08:49.583Z,17.33
2023-03-06T10:11:27.878Z,18.05
2023-03-06T10:14:14.955Z,17.75
2023-03-06T10:16:46.669Z,19.63
2023-03-06T10:19:19.821Z,19.80
2023-03-06T10:21:59.143Z,18.08
2023-03-06T10:24:48.909Z,19.35
2023-03-06T10:27:30.430Z,18.27
2023-03-06T10:30:20.913Z,18.92
2023-03-06T10:32:58.791Z,19.27
2023-03-06T10:35:33.929Z,19.90
2023-03-06T10:38:19.614Z,19.45
2023-03-06T10:41:02.464Z,19.65
2023-03-06T10:43:40.017Z,20.40
2023-03-06T10:46:12.223Z,20.08
2023-03-06T10:48:53.619Z,20.50
2023-03-06T10:51:26.550Z,20.15
2023-03-06T10:54:01.285Z,19.80
2023-03-06T10:56:35.374Z,20.90
2023-03-06T10:59:11.509Z,19.73
2023-03-06T11:01:48.918Z,20.38
2023-03-06T11:04:43.201Z,22.27
2023-03-06T11:07:26.011Z,21.15
2023-03-06T11:10:23.596Z,21.17
2023-03-06T11:13:26.093Z,20.88
2023-03-06T11:16:10.927Z,22.58
2023-03-06T11:18:47.635Z,22.88
2023-03-06T11:21:34.871Z,22.55
2023-03-06T11:24:13.603Z,20.15
2023-03-06T11:27:00.369Z,21.40
2023-03-06T11:29:44.057Z,21.45
2023-03-06T11:32:34.662Z,20.02
2023-03-06T11:35:21.021Z,21.08
2023-03-06T11:38:01.268Z,19.80
2023-03-06T11:40:40.424Z,22.27
2023-03-06T11:43:30.040Z,20.77
2023-03-06T11:46:11.224Z,21.27
2023-03-06T11:48:51.466Z,21.10
2023-03-06T11:51:26.778Z,19.30
2023-03-06T11:54:01.307Z,21.60
2023-03-06T11:56:46.579Z,21.45
2023-03-06T11:59:39.836Z,22.00
2023-03-06T12:02:42.008Z,21.80
2023-03-06T12:05:31.113Z,21.60
2023-03-06T12:08:17.231Z,21.25
2023-03-06T12:10:56.859Z,20.58
2023-03-06T12:13:40.500Z,20.80
2023-03-06T12:16:39.488Z,20.65
2023-03-06T12:19:36.688Z,19.83
2023-03-06T12:22:34.761Z,20.55
2023-03-06T12:25:37.581Z,20.88
2023-03-06T12:28:34.968Z,22.00
2023-03-06T12:31:25.914Z,22.38
2023-03-06T12:34:27.112Z,20.50
2023-03-06T12:37:14.536Z,22.15
2023-03-06T12:40:10.875Z,21.98
2023-03-06T12:43:08.101Z,20.38
2023-03-06T12:45:45.130Z,22.00
2023-03-06T12:48:23.831Z,20.63
2023-03-06T12:51:00.322Z,21.75
2023-03-06T12:53:36.068Z,21.70
2023-03-06T12:56:08.047Z,21.42
2023-03-06T12:59:01.784Z,20.48
2023-03-06T13:02:01.806Z,21.15
2023-03-06T13:05:03.985Z,20.27
2023-03-06T13:07:56.512Z,20.13
2023-03-06T13:10:31.545Z,19.50
2023-03-06T13:13:06.185Z,21.67
2023-03-06T13:15:42.729Z,21.05
2023-03-06T13:18:58.474Z,22.35
2023-03-06T13:22:11.978Z,21.00
2023-03-06T13:24:46.744Z,21.40
2023-03-06T13:28:01.810Z,21.20
2023-03-06T13:30:46.769Z,21.08
2023-03-06T13:33:58.086Z,21.63
2023-03-06T13:36:34.269Z,21.08
2023-03-06T13:39:07.474Z,20.25
2023-03-06T13:42:04.437Z,20.45
2023-03-06T13:44:46.984Z,21.75
2023-03-06T13:50:47.378Z,20.10
2023-03-06T13:54:01.509Z,20.40
2023-03-06T13:57:05.062Z,21.52
2023-03-06T14:04:32.529Z,21.20
2023-03-06T14:07:35.827Z,20.48
2023-03-06T14:10:28.572Z,20.10
2023-03-06T14:13:13.146Z,20.80
2023-03-06T14:15:54.054Z,21.38
2023-03-06T14:18:49.560Z,21.40
2023-03-06T14:21:32.877Z,21.20
2023-03-06T14:24:29.686Z,19.85
2023-03-06T14:30:56.073Z,20.13
2023-03-06T14:33:42.756Z,21.83
2023-03-06T14:36:18.126Z,21.92
2023-03-06T14:38:57.184Z,20.67
2023-03-06T14:41:30.467Z,21.33
2023-03-06T14:44:20.547Z,21.98
2023-03-06T14:46:56.049Z,21.13
2023-03-06T14:49:30.863Z,21.15
2023-03-06T14:52:03.008Z,22.85
2023-03-06T14:54:45.881Z,22.48
2023-03-06T14:57:20.200Z,22.38
2023-03-06T15:00:12.984Z,22.35
2023-03-06T15:03:37.699Z,20.80
2023-03-06T15:06:23.998Z,21.13
2023-03-06T15:09:10.826Z,21.55
2023-03-06T15:12:10.221Z,20.45
2023-03-06T15:15:58.713Z,22.20
2023-03-06T15:18:34.616Z,22.45
2023-03-06T15:21:22.168Z,21.70
2023-03-06T15:23:57.409Z,21.30
2023-03-06T15:26:34.307Z,21.67
2023-03-06T15:29:23.929Z,21.67
2023-03-06T15:32:00.023Z,21.75
2023-03-06T15:34:33.931Z,22.55
2023-03-06T15:37:22.547Z,21.92
2023-03-06T15:40:10.303Z,21.75
2023-03-06T15:42:40.871Z,22.55
2023-03-06T15:45:20.026Z,21.80
2023-03-06T15:47:52.018Z,22.15
2023-03-06T15:50:24.478Z,20.98
2023-03-06T15:52:55.910Z,22.33
2023-03-06T15:55:28.286Z,22.17
2023-03-06T15:58:01.232Z,22.77
2023-03-06T16:00:36.044Z,22.13
2023-03-06T16:03:09.947Z,21.73
2023-03-06T16:05:43.381Z,21.50
2023-03-06T16:08:18.841Z,22.02
2023-03-06T16:10:54.889Z,23.73
2023-03-06T16:13:30.678Z,21.33
2023-03-06T16:16:03.017Z,23.70
2023-03-06T16:18:34.336Z,22.10
2023-03-06T16:21:07.909Z,22.33
2023-03-06T16:23:40.167Z,23.30
2023-03-06T16:26:20.925Z,22.30
2023-03-06T16:28:52.377Z,21.60
2023-03-06T16:31:28.786Z,22.58
2023-03-06T16:33:59.376Z,22.42
2023-03-06T16:36:31.046Z,22.25
2023-03-06T16:39:04.944Z,21.70
2023-03-06T16:41:35.630Z,22.55
2023-03-06T16:44:10.933Z,21.00
2023-03-06T16:46:46.598Z,21.55
2023-03-06T16:49:21.535Z,21.60
2023-03-06T16:51:57.751Z,22.70
2023-03-06T16:54:28.408Z,22.92
2023-03-06T16:56:59.083Z,23.55
2023-03-06T16:59:29.719Z,24.65
2023-03-06T17:02:02.434Z,22.35
2023-03-06T17:15:21.728Z,22.83
2023-03-06T17:18:04.021Z,22.08
2023-03-06T17:20:49.272Z,22.23
2023-03-06T17:23:23.153Z,24.55
2023-03-06T17:25:53.637Z,24.73
2023-03-06T17:28:24.210Z,25.60
2023-03-06T17:30:57.812Z,23.52
2023-03-06T17:33:30.910Z,24.45
2023-03-06T17:36:03.563Z,24.95
2023-03-06T17:38:37.474Z,26.48
2023-03-06T17:41:10.065Z,26.13
2023-03-06T17:43:41.732Z,24.75
2023-03-06T17:46:14.007Z,25.35
2023-03-06T17:48:46.201Z,25.83
2023-03-06T17:51:16.921Z,25.13
2023-03-06T17:53:47.457Z,24.75
2023-03-06T17:56:18.419Z,23.33
2023-03-06T17:58:49.018Z,23.42
2023-03-06T18:01:21.994Z,21.38
2023-03-06T18:03:54.664Z,23.17
2023-03-06T18:06:27.012Z,22.98
2023-03-06T18:08:57.882Z,22.98
2023-03-06T18:11:28.461Z,22.95
2023-03-06T18:13:59.060Z,21.77
2023-03-06T18:16:30.019Z,21.20
2023-03-06T18:19:02.212Z,21.20
2023-03-06T18:21:38.432Z,20.85
2023-03-06T18:24:10.169Z,20.55
2023-03-06T18:26:40.760Z,20.13
2023-03-06T18:29:11.730Z,20.45
2023-03-06T18:31:43.703Z,20.67
2023-03-06T18:34:19.326Z,20.67
2023-03-06T18:36:52.436Z,20.38
2023-03-06T18:39:27.920Z,19.70
2023-03-06T18:41:58.407Z,21.00
2023-03-06T18:44:28.919Z,20.55
2023-03-06T18:46:59.426Z,21.33
2023-03-06T18:49:31.680Z,19.42
2023-03-06T18:52:02.299Z,19.60
2023-03-06T18:54:32.867Z,19.27
2023-03-06T18:57:03.439Z,19.77
2023-03-06T18:59:33.980Z,18.98
2023-03-06T19:02:04.541Z,20.02
2023-03-06T19:04:38.788Z,20.27
2023-03-06T19:07:11.949Z,20.65
2023-03-06T19:09:44.834Z,18.83
2023-03-06T19:12:15.338Z,20.38
2023-03-06T19:14:48.371Z,19.05
2023-03-06T19:17:21.066Z,18.77
2023-03-06T19:19:55.901Z,19.23
2023-03-06T19:22:27.183Z,19.30
2023-03-06T19:24:57.705Z,19.77
2023-03-06T19:27:28.681Z,19.35
2023-03-06T19:30:01.905Z,19.52
2023-03-06T19:32:35.784Z,20.48
2023-03-06T19:35:08.595Z,20.42
2023-03-06T19:37:40.624Z,19.38
2023-03-06T19:40:15.246Z,19.10
2023-03-06T19:42:46.532Z,21.85
2023-03-06T19:45:16.902Z,23.45
2023-03-06T19:47:47.993Z,22.92
2023-03-06T19:50:23.036Z,20.10
2023-03-06T19:52:54.631Z,21.85
2023-03-06T19:55:27.306Z,21.20
2023-03-06T19:58:03.690Z,21.13
2023-03-06T20:00:34.216Z,21.55
2023-03-06T20:03:04.708Z,23.42
2023-03-06T20:05:36.751Z,21.65
2023-03-06T20:08:07.497Z,21.02
2023-03-06T20:10:39.896Z,20.95
2023-03-06T20:13:10.319Z,20.52
2023-03-06T20:15:40.777Z,18.63
2023-03-06T20:18:11.239Z,22.15
2023-03-06T20:20:43.313Z,21.63
2023-03-06T20:23:16.239Z,21.48
2023-03-06T20:25:47.058Z,21.75
2023-03-06T20:28:17.603Z,19.98
2023-03-06T20:30:48.170Z,20.80
2023-03-06T20:33:20.478Z,23.55
2023-03-06T20:35:52.617Z,20.90
2023-03-06T20:38:23.152Z,21.00
2023-03-06T20:40:56.173Z,21.58
2023-03-06T20:43:26.930Z,25.75
2023-03-06T20:46:01.611Z,24.30
2023-03-06T20:48:32.497Z,19.48
2023-03-06T20:51:06.829Z,20.77
2023-03-06T20:53:37.595Z,20.38
2023-03-06T20:56:08.829Z,20.50
2023-03-06T20:58:39.195Z,19.80
2023-03-06T21:01:09.817Z,19.00
2023-03-06T21:03:40.301Z,17.85
2023-03-06T21:06:12.548Z,17.23
2023-03-06T21:08:43.050Z,18.10
2023-03-06T21:11:13.508Z,18.63
2023-03-06T21:13:44.051Z,19.20
2023-03-06T21:16:16.388Z,18.17
2023-03-06T21:18:46.928Z,17.58
2023-03-06T21:21:20.722Z,17.60
2023-03-06T21:23:51.823Z,17.90
2023-03-06T21:26:24.804Z,16.33
2023-03-06T21:28:55.328Z,16.23
2023-03-06T21:31:26.038Z,14.32
2023-03-06T21:33:56.949Z,16.95
2023-03-06T21:36:29.746Z,15.68
2023-03-06T21:39:00.197Z,15.82
2023-03-06T21:41:33.201Z,15.30
2023-03-06T21:44:04.922Z,16.05
2023-03-06T21:46:36.136Z,13.65
2023-03-06T21:49:07.495Z,15.85
2023-03-06T21:51:39.643Z,14.40
2023-03-06T21:54:10.635Z,11.95
2023-03-06T21:56:41.188Z,10.70
2023-03-06T21:59:11.681Z,14.35
2023-03-06T22:01:43.465Z,14.00
2023-03-06T22:04:13.853Z,14.02
2023-03-06T22:06:46.073Z,13.68
2023-03-06T22:09:19.855Z,12.60
2023-03-06T22:11:50.385Z,12.32
2023-03-06T22:14:20.905Z,11.82
2023-03-06T22:16:53.411Z,10.88
2023-03-06T22:19:23.935Z,6.78
2023-03-06T22:21:56.069Z,8.50
2023-03-06T22:24:29.446Z,7.22
2023-03-06T22:27:00.028Z,9.45
2023-03-06T22:29:30.623Z,8.30
2023-03-06T22:32:01.114Z,6.07
2023-03-06T22:34:31.614Z,7.05
2023-03-06T22:37:03.852Z,6.28
2023-03-06T22:39:34.385Z,6.40
2023-03-06T22:42:04.887Z,7.68
2023-03-06T22:44:35.369Z,7.97
2023-03-06T22:47:05.908Z,7.97
2023-03-06T22:49:36.431Z,7.50
2023-03-06T22:52:09.031Z,6.75
2023-03-06T22:54:39.683Z,7.35
2023-03-06T22:57:10.222Z,5.93
2023-03-06T22:59:40.762Z,6.82
2023-03-06T23:02:11.282Z,8.02
2023-03-06T23:04:41.910Z,6.43
2023-03-06T23:07:14.080Z,8.07
2023-03-06T23:09:44.576Z,7.15
2023-03-06T23:12:15.135Z,7.35
2023-03-06T23:14:50.314Z,7.28
2023-03-06T23:17:20.986Z,6.28
2023-03-06T23:19:52.649Z,7.03
2023-03-06T23:22:25.462Z,8.52
2023-03-06T23:24:55.908Z,7.18
2023-03-06T23:27:26.624Z,7.07
2023-03-06T23:29:59.692Z,6.07
2023-03-06T23:32:30.235Z,8.43
2023-03-06T23:35:00.790Z,7.57
2023-03-06T23:37:32.979Z,7.40
2023-03-06T23:40:03.470Z,7.57
2023-03-06T23:42:35.246Z,7.07
2023-03-06T23:45:06.109Z,7.95
2023-03-06T23:47:36.973Z,7.63
2023-03-06T23:50:08.216Z,6.93
2023-03-06T23:52:40.434Z,7.40
2023-03-06T23:55:11.981Z,7.40
2023-03-06T23:57:42.482Z,8.30
